sensor_id;sensor_type;location;lat;lon;timestamp;pressure;altitude;pressure_sealevel;temperature;humidity
20043;BME280;10182;52.896;6.496;2022-11-25T00:04:58;100834.44;;;6.43;100.00
20043;BME280;10182;52.896;6.496;2022-11-25T00:09:59;100829.25;;;6.41;100.00
20043;BME280;10182;52.896;6.496;2022-11-25T00:15:02;100838.06;;;6.39;100.00
20043;BME280;10182;52.896;6.496;2022-11-25T00:20:07;100836.19;;;6.44;100.00
20043;BME280;10182;52.896;6.496;2022-11-25T00:25:08;100826.50;;;6.44;100.00
20043;BME280;10182;52.896;6.496;2022-11-25T00:30:11;100828.25;;;6.46;100.00
20043;BME280;10182;52.896;6.496;2022-11-25T00:35:14;100811.50;;;6.48;100.00
20043;BME280;10182;52.896;6.496;2022-11-25T00:40:16;100810.50;;;6.52;100.00
20043;BME280;10182;52.896;6.496;2022-11-25T00:45:18;100815.84;;;6.49;100.00
20043;BME280;10182;52.896;6.496;2022-11-25T00:50:22;100812.94;;;6.58;100.00
20043;BME280;10182;52.896;6.496;2022-11-25T00:55:23;100800.63;;;6.60;100.00
20043;BME280;10182;52.896;6.496;2022-11-25T01:00:45;100819.00;;;6.62;100.00
20043;BME280;10182;52.896;6.496;2022-11-25T01:05:48;100815.41;;;6.65;100.00
20043;BME280;10182;52.896;6.496;2022-11-25T01:10:57;100816.09;;;6.71;100.00
20043;BME280;10182;52.896;6.496;2022-11-25T01:16:00;100813.63;;;6.65;100.00
20043;BME280;10182;52.896;6.496;2022-11-25T01:21:08;100820.59;;;6.68;100.00
20043;BME280;10182;52.896;6.496;2022-11-25T01:26:12;100816.97;;;6.72;100.00
20043;BME280;10182;52.896;6.496;2022-11-25T01:31:16;100815.19;;;6.72;100.00
20043;BME280;10182;52.896;6.496;2022-11-25T01:36:20;100822.91;;;6.78;100.00
20043;BME280;10182;52.896;6.496;2022-11-25T01:41:23;100813.91;;;6.86;100.00
20043;BME280;10182;52.896;6.496;2022-11-25T01:46:27;100815.53;;;6.90;100.00
20043;BME280;10182;52.896;6.496;2022-11-25T01:51:38;100808.53;;;6.89;100.00
20043;BME280;10182;52.896;6.496;2022-11-25T01:56:45;100806.91;;;6.86;100.00
20043;BME280;10182;52.896;6.496;2022-11-25T02:01:50;100817.53;;;6.82;100.00
20043;BME280;10182;52.896;6.496;2022-11-25T02:06:56;100821.63;;;6.92;100.00
20043;BME280;10182;52.896;6.496;2022-11-25T02:12:00;100817.22;;;6.92;100.00
20043;BME280;10182;52.896;6.496;2022-11-25T02:17:02;100812.97;;;6.88;100.00
20043;BME280;10182;52.896;6.496;2022-11-25T02:22:10;100813.69;;;6.93;100.00
20043;BME280;10182;52.896;6.496;2022-11-25T02:27:18;100814.81;;;6.85;100.00
20043;BME280;10182;52.896;6.496;2022-11-25T02:32:20;100803.28;;;6.89;100.00
20043;BME280;10182;52.896;6.496;2022-11-25T02:37:23;100801.53;;;6.89;100.00
20043;BME280;10182;52.896;6.496;2022-11-25T02:42:27;100804.25;;;6.86;100.00
20043;BME280;10182;52.896;6.496;2022-11-25T02:47:30;100802.31;;;6.93;100.00
20043;BME280;10182;52.896;6.496;2022-11-25T02:52:32;100808.53;;;6.89;100.00
20043;BME280;10182;52.896;6.496;2022-11-25T02:57:34;100811.19;;;6.89;100.00
20043;BME280;10182;52.896;6.496;2022-11-25T03:02:36;100823.53;;;6.87;100.00
20043;BME280;10182;52.896;6.496;2022-11-25T03:07:38;100824.66;;;6.80;100.00
20043;BME280;10182;52.896;6.496;2022-11-25T03:12:42;100815.81;;;6.81;100.00
20043;BME280;10182;52.896;6.496;2022-11-25T03:17:44;100814.88;;;6.83;100.00
20043;BME280;10182;52.896;6.496;2022-11-25T03:22:46;100822.72;;;6.85;100.00
20043;BME280;10182;52.896;6.496;2022-11-25T03:27:49;100816.53;;;6.86;100.00
20043;BME280;10182;52.896;6.496;2022-11-25T03:32:51;100817.31;;;6.89;100.00
20043;BME280;10182;52.896;6.496;2022-11-25T03:37:53;100811.97;;;6.92;100.00
20043;BME280;10182;52.896;6.496;2022-11-25T03:42:56;100812.63;;;6.99;100.00
20043;BME280;10182;52.896;6.496;2022-11-25T03:47:57;100819.75;;;6.97;100.00
20043;BME280;10182;52.896;6.496;2022-11-25T03:52:59;100808.47;;;6.92;100.00
20043;BME280;10182;52.896;6.496;2022-11-25T03:58:02;100826.97;;;6.89;100.00
20043;BME280;10182;52.896;6.496;2022-11-25T04:03:04;100826.72;;;6.98;100.00
20043;BME280;10182;52.896;6.496;2022-11-25T04:08:05;100826.66;;;7.00;100.00
20043;BME280;10182;52.896;6.496;2022-11-25T04:13:08;100830.34;;;6.94;100.00
20043;BME280;10182;52.896;6.496;2022-11-25T04:18:10;100831.97;;;6.98;100.00
20043;BME280;10182;52.896;6.496;2022-11-25T04:23:13;100832.53;;;7.08;100.00
20043;BME280;10182;52.896;6.496;2022-11-25T04:28:16;100838.88;;;7.02;100.00
20043;BME280;10182;52.896;6.496;2022-11-25T04:33:17;100846.06;;;6.97;100.00
20043;BME280;10182;52.896;6.496;2022-11-25T04:38:19;100840.72;;;7.00;100.00
20043;BME280;10182;52.896;6.496;2022-11-25T04:43:22;100834.53;;;7.01;100.00
20043;BME280;10182;52.896;6.496;2022-11-25T04:48:24;100834.34;;;7.07;100.00
20043;BME280;10182;52.896;6.496;2022-11-25T04:53:26;100842.44;;;7.01;100.00
20043;BME280;10182;52.896;6.496;2022-11-25T04:58:29;100845.19;;;6.97;100.00
20043;BME280;10182;52.896;6.496;2022-11-25T05:03:48;100845.09;;;7.00;100.00
20043;BME280;10182;52.896;6.496;2022-11-25T05:08:50;100852.03;;;7.02;100.00
20043;BME280;10182;52.896;6.496;2022-11-25T05:13:53;100859.09;;;7.02;100.00
20043;BME280;10182;52.896;6.496;2022-11-25T05:18:54;100865.16;;;7.05;100.00
20043;BME280;10182;52.896;6.496;2022-11-25T05:23:56;100880.16;;;7.02;100.00
20043;BME280;10182;52.896;6.496;2022-11-25T05:28:59;100879.25;;;7.03;100.00
20043;BME280;10182;52.896;6.496;2022-11-25T05:34:01;100887.13;;;7.04;100.00
20043;BME280;10182;52.896;6.496;2022-11-25T05:39:03;100886.13;;;7.08;100.00
20043;BME280;10182;52.896;6.496;2022-11-25T05:44:06;100894.00;;;7.08;100.00
20043;BME280;10182;52.896;6.496;2022-11-25T05:49:08;100894.78;;;7.12;100.00
20043;BME280;10182;52.896;6.496;2022-11-25T05:54:10;100892.22;;;7.09;100.00
20043;BME280;10182;52.896;6.496;2022-11-25T05:59:13;100907.03;;;7.13;100.00
20043;BME280;10182;52.896;6.496;2022-11-25T06:04:15;100900.91;;;7.13;100.00
20043;BME280;10182;52.896;6.496;2022-11-25T06:09:16;100906.09;;;7.16;100.00
20043;BME280;10182;52.896;6.496;2022-11-25T06:14:19;100907.00;;;7.15;100.00
20043;BME280;10182;52.896;6.496;2022-11-25T06:19:21;100914.00;;;7.16;100.00
20043;BME280;10182;52.896;6.496;2022-11-25T06:24:23;100913.09;;;7.17;100.00
20043;BME280;10182;52.896;6.496;2022-11-25T06:29:26;100922.69;;;7.19;100.00
20043;BME280;10182;52.896;6.496;2022-11-25T06:34:28;100928.00;;;7.18;100.00
20043;BME280;10182;52.896;6.496;2022-11-25T06:39:29;100942.72;;;7.25;100.00
20043;BME280;10182;52.896;6.496;2022-11-25T06:44:32;100940.88;;;7.27;100.00
20043;BME280;10182;52.896;6.496;2022-11-25T06:49:34;100946.13;;;7.28;100.00
20043;BME280;10182;52.896;6.496;2022-11-25T06:54:35;100961.97;;;7.27;100.00
20043;BME280;10182;52.896;6.496;2022-11-25T06:59:41;100961.94;;;7.28;100.00
20043;BME280;10182;52.896;6.496;2022-11-25T07:04:43;100982.09;;;7.29;100.00
20043;BME280;10182;52.896;6.496;2022-11-25T07:09:45;100983.19;;;7.22;100.00
20043;BME280;10182;52.896;6.496;2022-11-25T07:14:50;100991.25;;;7.16;100.00
20043;BME280;10182;52.896;6.496;2022-11-25T07:19:52;100984.47;;;7.07;100.00
20043;BME280;10182;52.896;6.496;2022-11-25T07:24:53;100989.94;;;7.00;100.00
20043;BME280;10182;52.896;6.496;2022-11-25T07:29:56;101004.34;;;6.88;100.00
20043;BME280;10182;52.896;6.496;2022-11-25T07:34:58;101012.38;;;6.82;100.00
20043;BME280;10182;52.896;6.496;2022-11-25T07:39:59;101016.84;;;6.80;100.00
20043;BME280;10182;52.896;6.496;2022-11-25T07:45:03;101030.06;;;6.78;100.00
20043;BME280;10182;52.896;6.496;2022-11-25T07:50:06;101039.84;;;6.73;100.00
20043;BME280;10182;52.896;6.496;2022-11-25T07:55:08;101053.91;;;6.72;100.00
20043;BME280;10182;52.896;6.496;2022-11-25T08:00:13;101051.34;;;6.69;100.00
20043;BME280;10182;52.896;6.496;2022-11-25T08:05:15;101061.00;;;6.68;100.00
20043;BME280;10182;52.896;6.496;2022-11-25T08:10:16;101060.03;;;6.72;100.00
20043;BME280;10182;52.896;6.496;2022-11-25T08:15:19;101070.44;;;6.77;100.00
20043;BME280;10182;52.896;6.496;2022-11-25T08:20:21;101065.91;;;6.84;100.00
20043;BME280;10182;52.896;6.496;2022-11-25T08:25:23;101072.81;;;6.88;100.00
20043;BME280;10182;52.896;6.496;2022-11-25T08:30:27;101084.06;;;6.94;100.00
20043;BME280;10182;52.896;6.496;2022-11-25T08:35:29;101088.19;;;7.03;100.00
20043;BME280;10182;52.896;6.496;2022-11-25T08:40:31;101082.78;;;7.08;100.00
20043;BME280;10182;52.896;6.496;2022-11-25T08:45:35;101080.88;;;7.15;100.00
20043;BME280;10182;52.896;6.496;2022-11-25T08:50:37;101094.78;;;7.20;100.00
20043;BME280;10182;52.896;6.496;2022-11-25T08:55:39;101100.91;;;7.20;100.00
20043;BME280;10182;52.896;6.496;2022-11-25T09:00:43;101108.63;;;7.28;100.00
20043;BME280;10182;52.896;6.496;2022-11-25T09:05:45;101122.44;;;7.36;100.00
20043;BME280;10182;52.896;6.496;2022-11-25T09:10:47;101130.03;;;7.49;100.00
20043;BME280;10182;52.896;6.496;2022-11-25T09:15:50;101128.28;;;7.49;100.00
20043;BME280;10182;52.896;6.496;2022-11-25T09:20:52;101125.41;;;7.57;100.00
20043;BME280;10182;52.896;6.496;2022-11-25T09:25:56;101143.66;;;7.65;100.00
20043;BME280;10182;52.896;6.496;2022-11-25T09:31:06;101146.09;;;7.72;100.00
20043;BME280;10182;52.896;6.496;2022-11-25T09:36:08;101156.50;;;7.77;100.00
20043;BME280;10182;52.896;6.496;2022-11-25T09:41:22;101158.78;;;7.89;100.00
20043;BME280;10182;52.896;6.496;2022-11-25T09:46:54;101157.00;;;7.90;100.00
20043;BME280;10182;52.896;6.496;2022-11-25T09:52:08;101170.81;;;8.00;100.00
20043;BME280;10182;52.896;6.496;2022-11-25T09:57:19;101179.31;;;8.09;100.00
20043;BME280;10182;52.896;6.496;2022-11-25T10:02:27;101180.69;;;8.21;100.00
20043;BME280;10182;52.896;6.496;2022-11-25T10:07:37;101186.72;;;8.26;100.00
20043;BME280;10182;52.896;6.496;2022-11-25T10:12:42;101192.56;;;8.36;100.00
20043;BME280;10182;52.896;6.496;2022-11-25T10:17:48;101197.72;;;8.41;100.00
20043;BME280;10182;52.896;6.496;2022-11-25T10:22:53;101209.00;;;8.48;100.00
20043;BME280;10182;52.896;6.496;2022-11-25T10:27:58;101211.44;;;8.54;100.00
20043;BME280;10182;52.896;6.496;2022-11-25T10:33:11;101211.28;;;8.60;100.00
20043;BME280;10182;52.896;6.496;2022-11-25T10:38:19;101221.41;;;8.74;100.00
20043;BME280;10182;52.896;6.496;2022-11-25T10:43:22;101216.84;;;8.79;100.00
20043;BME280;10182;52.896;6.496;2022-11-25T10:48:44;101216.63;;;8.85;100.00
20043;BME280;10182;52.896;6.496;2022-11-25T10:54:13;101232.19;;;8.94;100.00
20043;BME280;10182;52.896;6.496;2022-11-25T10:59:25;101238.50;;;8.90;100.00
20043;BME280;10182;52.896;6.496;2022-11-25T11:04:29;101240.00;;;8.97;100.00
20043;BME280;10182;52.896;6.496;2022-11-25T11:09:33;101243.38;;;9.03;100.00
20043;BME280;10182;52.896;6.496;2022-11-25T11:14:35;101251.38;;;9.01;100.00
20043;BME280;10182;52.896;6.496;2022-11-25T11:19:39;101251.16;;;9.07;100.00
20043;BME280;10182;52.896;6.496;2022-11-25T11:24:40;101259.75;;;9.14;100.00
20043;BME280;10182;52.896;6.496;2022-11-25T11:29:42;101264.31;;;9.09;100.00
20043;BME280;10182;52.896;6.496;2022-11-25T11:34:54;101278.41;;;9.09;100.00
20043;BME280;10182;52.896;6.496;2022-11-25T11:40:18;101285.22;;;9.17;100.00
20043;BME280;10182;52.896;6.496;2022-11-25T11:45:39;101283.19;;;9.25;100.00
20043;BME280;10182;52.896;6.496;2022-11-25T11:50:48;101295.09;;;9.38;100.00
20043;BME280;10182;52.896;6.496;2022-11-25T11:55:58;101300.09;;;9.47;100.00
20043;BME280;10182;52.896;6.496;2022-11-25T12:01:07;101310.63;;;9.49;100.00
20043;BME280;10182;52.896;6.496;2022-11-25T12:06:14;101305.69;;;9.65;100.00
20043;BME280;10182;52.896;6.496;2022-11-25T12:11:20;101318.75;;;9.70;100.00
20043;BME280;10182;52.896;6.496;2022-11-25T12:16:26;101317.88;;;9.69;100.00
20043;BME280;10182;52.896;6.496;2022-11-25T12:21:38;101332.03;;;9.68;100.00
20043;BME280;10182;52.896;6.496;2022-11-25T12:26:50;101332.09;;;9.67;100.00
20043;BME280;10182;52.896;6.496;2022-11-25T12:31:58;101335.03;;;9.57;100.00
20043;BME280;10182;52.896;6.496;2022-11-25T12:37:09;101339.53;;;9.54;100.00
20043;BME280;10182;52.896;6.496;2022-11-25T12:42:14;101343.72;;;9.61;100.00
20043;BME280;10182;52.896;6.496;2022-11-25T12:47:20;101359.34;;;9.69;100.00
20043;BME280;10182;52.896;6.496;2022-11-25T12:52:37;101358.47;;;9.68;100.00
20043;BME280;10182;52.896;6.496;2022-11-25T12:58:05;101358.31;;;9.73;100.00
20043;BME280;10182;52.896;6.496;2022-11-25T13:03:32;101363.34;;;9.80;100.00
20043;BME280;10182;52.896;6.496;2022-11-25T13:08:55;101367.03;;;9.76;100.00
20043;BME280;10182;52.896;6.496;2022-11-25T13:14:03;101383.63;;;9.81;100.00
20043;BME280;10182;52.896;6.496;2022-11-25T13:19:15;101378.31;;;9.81;100.00
20043;BME280;10182;52.896;6.496;2022-11-25T13:24:28;101391.56;;;9.80;100.00
20043;BME280;10182;52.896;6.496;2022-11-25T13:29:58;101398.00;;;9.73;100.00
20043;BME280;10182;52.896;6.496;2022-11-25T13:35:37;101404.16;;;9.73;100.00
20043;BME280;10182;52.896;6.496;2022-11-25T13:40:40;101410.56;;;9.66;100.00
20043;BME280;10182;52.896;6.496;2022-11-25T13:45:43;101416.81;;;9.63;100.00
20043;BME280;10182;52.896;6.496;2022-11-25T13:50:46;101422.97;;;9.64;100.00
20043;BME280;10182;52.896;6.496;2022-11-25T13:55:49;101418.50;;;9.66;100.00
20043;BME280;10182;52.896;6.496;2022-11-25T14:01:21;101430.88;;;9.65;100.00
20043;BME280;10182;52.896;6.496;2022-11-25T14:12:09;101456.16;;;9.74;100.00
20043;BME280;10182;52.896;6.496;2022-11-25T14:17:29;101460.25;;;9.85;100.00
20043;BME280;10182;52.896;6.496;2022-11-25T14:23:08;101464.63;;;9.86;100.00
20043;BME280;10182;52.896;6.496;2022-11-25T14:28:23;101477.94;;;9.82;100.00
20043;BME280;10182;52.896;6.496;2022-11-25T14:33:32;101481.50;;;9.81;100.00
20043;BME280;10182;52.896;6.496;2022-11-25T14:38:41;101495.88;;;9.73;100.00
20043;BME280;10182;52.896;6.496;2022-11-25T14:43:49;101503.25;;;9.63;100.00
20043;BME280;10182;52.896;6.496;2022-11-25T14:48:55;101511.53;;;9.51;100.00
20043;BME280;10182;52.896;6.496;2022-11-25T14:53:57;101532.97;;;9.41;100.00
20043;BME280;10182;52.896;6.496;2022-11-25T14:59:00;101530.53;;;9.35;100.00
20043;BME280;10182;52.896;6.496;2022-11-25T15:04:04;101542.25;;;9.25;100.00
20043;BME280;10182;52.896;6.496;2022-11-25T15:09:18;101550.44;;;9.15;100.00
20043;BME280;10182;52.896;6.496;2022-11-25T15:14:25;101559.44;;;9.08;100.00
20043;BME280;10182;52.896;6.496;2022-11-25T15:19:32;101571.16;;;9.00;100.00
20043;BME280;10182;52.896;6.496;2022-11-25T15:24:40;101569.69;;;8.88;100.00
20043;BME280;10182;52.896;6.496;2022-11-25T15:29:44;101578.69;;;8.80;100.00
20043;BME280;10182;52.896;6.496;2022-11-25T15:34:48;101586.44;;;8.87;100.00
20043;BME280;10182;52.896;6.496;2022-11-25T15:39:50;101594.81;;;8.70;100.00
20043;BME280;10182;52.896;6.496;2022-11-25T15:45:19;101610.16;;;8.54;100.00
20043;BME280;10182;52.896;6.496;2022-11-25T15:50:23;101616.66;;;8.39;100.00
20043;BME280;10182;52.896;6.496;2022-11-25T15:55:30;101633.66;;;8.25;100.00
20043;BME280;10182;52.896;6.496;2022-11-25T16:00:34;101651.44;;;8.17;100.00
20043;BME280;10182;52.896;6.496;2022-11-25T16:05:36;101663.06;;;8.10;100.00
20043;BME280;10182;52.896;6.496;2022-11-25T16:10:49;101680.81;;;8.02;100.00
20043;BME280;10182;52.896;6.496;2022-11-25T16:15:55;101684.53;;;7.93;100.00
20043;BME280;10182;52.896;6.496;2022-11-25T16:21:03;101687.34;;;7.84;100.00
20043;BME280;10182;52.896;6.496;2022-11-25T16:26:14;101691.03;;;7.76;100.00
20043;BME280;10182;52.896;6.496;2022-11-25T16:31:17;101692.88;;;7.71;100.00
20043;BME280;10182;52.896;6.496;2022-11-25T16:36:19;101700.84;;;7.67;100.00
20043;BME280;10182;52.896;6.496;2022-11-25T16:41:22;101718.47;;;7.66;100.00
20043;BME280;10182;52.896;6.496;2022-11-25T16:46:26;101723.88;;;7.60;100.00
20043;BME280;10182;52.896;6.496;2022-11-25T16:51:28;101728.34;;;7.55;100.00
20043;BME280;10182;52.896;6.496;2022-11-25T16:56:30;101739.88;;;7.49;100.00
20043;BME280;10182;52.896;6.496;2022-11-25T17:01:33;101756.63;;;7.47;100.00
20043;BME280;10182;52.896;6.496;2022-11-25T17:06:35;101753.19;;;7.41;100.00
20043;BME280;10182;52.896;6.496;2022-11-25T17:11:39;101765.56;;;7.36;100.00
20043;BME280;10182;52.896;6.496;2022-11-25T17:16:44;101775.41;;;7.26;100.00
20043;BME280;10182;52.896;6.496;2022-11-25T17:21:45;101783.38;;;7.22;100.00
20043;BME280;10182;52.896;6.496;2022-11-25T17:26:49;101801.97;;;7.13;100.00
20043;BME280;10182;52.896;6.496;2022-11-25T17:31:52;101812.69;;;7.00;100.00
20043;BME280;10182;52.896;6.496;2022-11-25T17:36:55;101812.75;;;6.95;100.00
20043;BME280;10182;52.896;6.496;2022-11-25T17:41:57;101826.03;;;6.89;100.00
20043;BME280;10182;52.896;6.496;2022-11-25T17:47:00;101837.50;;;6.84;100.00
20043;BME280;10182;52.896;6.496;2022-11-25T17:52:01;101844.63;;;6.77;100.00
20043;BME280;10182;52.896;6.496;2022-11-25T17:57:04;101848.06;;;6.81;100.00
20043;BME280;10182;52.896;6.496;2022-11-25T18:02:15;101863.00;;;6.82;100.00
20043;BME280;10182;52.896;6.496;2022-11-25T18:07:19;101863.91;;;6.77;100.00
20043;BME280;10182;52.896;6.496;2022-11-25T18:12:25;101872.78;;;6.70;100.00
20043;BME280;10182;52.896;6.496;2022-11-25T18:17:29;101886.03;;;6.64;100.00
20043;BME280;10182;52.896;6.496;2022-11-25T18:22:30;101890.47;;;6.57;100.00
20043;BME280;10182;52.896;6.496;2022-11-25T18:27:32;101900.22;;;6.52;100.00
20043;BME280;10182;52.896;6.496;2022-11-25T18:32:35;101904.63;;;6.50;100.00
20043;BME280;10182;52.896;6.496;2022-11-25T18:37:37;101920.47;;;6.46;100.00
20043;BME280;10182;52.896;6.496;2022-11-25T18:42:39;101942.44;;;6.41;100.00
20043;BME280;10182;52.896;6.496;2022-11-25T18:47:43;101942.47;;;6.37;100.00
20043;BME280;10182;52.896;6.496;2022-11-25T18:52:45;101956.59;;;6.30;100.00
20043;BME280;10182;52.896;6.496;2022-11-25T18:57:48;101961.00;;;6.26;100.00
20043;BME280;10182;52.896;6.496;2022-11-25T19:02:51;101965.41;;;6.24;100.00
20043;BME280;10182;52.896;6.496;2022-11-25T19:07:53;101973.34;;;6.18;100.00
20043;BME280;10182;52.896;6.496;2022-11-25T19:12:57;101985.69;;;6.14;100.00
20043;BME280;10182;52.896;6.496;2022-11-25T19:18:04;101989.16;;;6.15;100.00
20043;BME280;10182;52.896;6.496;2022-11-25T19:23:15;101991.88;;;6.08;100.00
20043;BME280;10182;52.896;6.496;2022-11-25T19:28:17;102006.75;;;6.08;100.00
20043;BME280;10182;52.896;6.496;2022-11-25T19:33:24;102010.31;;;6.07;100.00
20043;BME280;10182;52.896;6.496;2022-11-25T19:38:28;102013.81;;;6.06;100.00
20043;BME280;10182;52.896;6.496;2022-11-25T19:43:32;102019.97;;;6.03;100.00
20043;BME280;10182;52.896;6.496;2022-11-25T19:48:36;102031.41;;;5.99;100.00
20043;BME280;10182;52.896;6.496;2022-11-25T19:53:38;102030.50;;;5.94;100.00
20043;BME280;10182;52.896;6.496;2022-11-25T19:58:40;102038.44;;;5.89;100.00
20043;BME280;10182;52.896;6.496;2022-11-25T20:03:44;102043.75;;;5.82;100.00
20043;BME280;10182;52.896;6.496;2022-11-25T20:08:46;102048.16;;;5.76;100.00
20043;BME280;10182;52.896;6.496;2022-11-25T20:13:48;102047.31;;;5.70;100.00
20043;BME280;10182;52.896;6.496;2022-11-25T20:18:52;102064.88;;;5.66;100.00
20043;BME280;10182;52.896;6.496;2022-11-25T20:23:54;102064.91;;;5.58;100.00
20043;BME280;10182;52.896;6.496;2022-11-25T20:28:56;102075.44;;;5.55;100.00
20043;BME280;10182;52.896;6.496;2022-11-25T20:33:59;102087.72;;;5.56;100.00
20043;BME280;10182;52.896;6.496;2022-11-25T20:39:01;102094.69;;;5.56;100.00
20043;BME280;10182;52.896;6.496;2022-11-25T20:44:03;102085.06;;;5.52;100.00
20043;BME280;10182;52.896;6.496;2022-11-25T20:49:19;102085.97;;;5.48;100.00
20043;BME280;10182;52.896;6.496;2022-11-25T20:54:21;102099.09;;;5.48;100.00
20043;BME280;10182;52.896;6.496;2022-11-25T20:59:23;102104.38;;;5.46;100.00
20043;BME280;10182;52.896;6.496;2022-11-25T21:04:27;102112.28;;;5.43;100.00
20043;BME280;10182;52.896;6.496;2022-11-25T21:09:31;102126.34;;;5.36;100.00
20043;BME280;10182;52.896;6.496;2022-11-25T21:14:33;102128.94;;;5.33;100.00
20043;BME280;10182;52.896;6.496;2022-11-25T21:19:37;102137.69;;;5.30;100.00
20043;BME280;10182;52.896;6.496;2022-11-25T21:24:40;102150.00;;;5.27;100.00
20043;BME280;10182;52.896;6.496;2022-11-25T21:29:43;102150.88;;;5.22;100.00
20043;BME280;10182;52.896;6.496;2022-11-25T21:34:47;102159.66;;;5.18;100.00
20043;BME280;10182;52.896;6.496;2022-11-25T21:39:48;102169.28;;;5.12;100.00
20043;BME280;10182;52.896;6.496;2022-11-25T21:44:51;102174.53;;;5.08;100.00
20043;BME280;10182;52.896;6.496;2022-11-25T21:49:54;102181.53;;;5.06;100.00
20043;BME280;10182;52.896;6.496;2022-11-25T21:54:56;102182.41;;;5.01;100.00
20043;BME280;10182;52.896;6.496;2022-11-25T21:59:58;102185.03;;;4.95;100.00
20043;BME280;10182;52.896;6.496;2022-11-25T22:05:01;102192.94;;;4.96;100.00
20043;BME280;10182;52.896;6.496;2022-11-25T22:10:03;102206.94;;;4.95;100.00
20043;BME280;10182;52.896;6.496;2022-11-25T22:15:08;102214.81;;;4.94;100.00
20043;BME280;10182;52.896;6.496;2022-11-25T22:20:26;102220.03;;;4.90;100.00
20043;BME280;10182;52.896;6.496;2022-11-25T22:25:30;102225.31;;;4.90;100.00
20043;BME280;10182;52.896;6.496;2022-11-25T22:30:33;102227.94;;;4.87;100.00
20043;BME280;10182;52.896;6.496;2022-11-25T22:35:36;102229.66;;;4.82;100.00
20043;BME280;10182;52.896;6.496;2022-11-25T22:40:37;102232.31;;;4.81;100.00
20043;BME280;10182;52.896;6.496;2022-11-25T22:45:40;102243.69;;;4.81;100.00
20043;BME280;10182;52.896;6.496;2022-11-25T22:50:44;102246.31;;;4.81;100.00
20043;BME280;10182;52.896;6.496;2022-11-25T22:55:47;102247.19;;;4.80;100.00
20043;BME280;10182;52.896;6.496;2022-11-25T23:00:50;102250.69;;;4.76;100.00
20043;BME280;10182;52.896;6.496;2022-11-25T23:05:54;102257.66;;;4.75;100.00
20043;BME280;10182;52.896;6.496;2022-11-25T23:10:56;102260.28;;;4.72;100.00
20043;BME280;10182;52.896;6.496;2022-11-25T23:15:59;102260.28;;;4.69;100.00
20043;BME280;10182;52.896;6.496;2022-11-25T23:21:03;102261.16;;;4.65;100.00
20043;BME280;10182;52.896;6.496;2022-11-25T23:26:05;102272.53;;;4.64;100.00
20043;BME280;10182;52.896;6.496;2022-11-25T23:31:10;102282.16;;;4.65;100.00
20043;BME280;10182;52.896;6.496;2022-11-25T23:36:17;102280.41;;;4.64;100.00
20043;BME280;10182;52.896;6.496;2022-11-25T23:41:21;102282.13;;;4.59;100.00
20043;BME280;10182;52.896;6.496;2022-11-25T23:46:25;102281.25;;;4.60;100.00
20043;BME280;10182;52.896;6.496;2022-11-25T23:51:31;102292.63;;;4.59;100.00
20043;BME280;10182;52.896;6.496;2022-11-25T23:56:33;102301.41;;;4.58;100.00
